sensor_id;sensor_type;location;lat;lon;timestamp;pressure;altitude;pressure_sealevel;temperature;humidity
65832;BME280;52593;42.648;23.332;2022-12-11T07:02:30;92566.09;;;13.72;62.98
65832;BME280;52593;42.648;23.332;2022-12-11T07:04:56;92568.06;;;13.82;61.23
65832;BME280;52593;42.648;23.332;2022-12-11T07:07:22;92547.22;;;13.95;61.19
65832;BME280;52593;42.648;23.332;2022-12-11T07:09:47;92556.97;;;14.01;60.25
65832;BME280;52593;42.648;23.332;2022-12-11T07:12:13;92574.50;;;13.81;62.01
65832;BME280;52593;42.648;23.332;2022-12-11T07:14:38;92565.34;;;13.77;62.25
65832;BME280;52593;42.648;23.332;2022-12-11T07:17:03;92560.72;;;13.72;61.50
65832;BME280;52593;42.648;23.332;2022-12-11T07:19:29;92587.81;;;13.93;60.88
65832;BME280;52593;42.648;23.332;2022-12-11T07:21:54;92591.47;;;14.36;58.46
65832;BME280;52593;42.648;23.332;2022-12-11T07:24:20;92580.88;;;14.24;58.93
65832;BME280;52593;42.648;23.332;2022-12-11T07:26:46;92580.88;;;13.75;63.20
65832;BME280;52593;42.648;23.332;2022-12-11T07:29:11;92580.38;;;13.78;62.05
65832;BME280;52593;42.648;23.332;2022-12-11T07:31:36;92583.69;;;13.85;61.93
65832;BME280;52593;42.648;23.332;2022-12-11T07:34:05;92595.03;;;13.87;61.83
65832;BME280;52593;42.648;23.332;2022-12-11T07:36:31;92599.19;;;14.00;61.29
65832;BME280;52593;42.648;23.332;2022-12-11T07:38:57;92614.53;;;14.00;61.02
65832;BME280;52593;42.648;23.332;2022-12-11T07:41:23;92610.44;;;13.97;61.88
65832;BME280;52593;42.648;23.332;2022-12-11T07:43:49;92596.00;;;13.81;62.51
65832;BME280;52593;42.648;23.332;2022-12-11T07:46:17;92585.69;;;13.95;61.77
65832;BME280;52593;42.648;23.332;2022-12-11T07:48:44;92608.63;;;14.30;59.36
65832;BME280;52593;42.648;23.332;2022-12-11T07:51:22;92628.81;;;14.27;60.11
65832;BME280;52593;42.648;23.332;2022-12-11T07:53:51;92640.56;;;14.21;60.55
65832;BME280;52593;42.648;23.332;2022-12-11T07:56:17;92607.41;;;14.43;58.95
65832;BME280;52593;42.648;23.332;2022-12-11T07:58:43;92610.03;;;14.38;59.37
65832;BME280;52593;42.648;23.332;2022-12-11T08:01:14;92617.47;;;13.98;61.94
65832;BME280;52593;42.648;23.332;2022-12-11T08:03:40;92607.88;;;13.85;62.75
65832;BME280;52593;42.648;23.332;2022-12-11T08:06:06;92594.19;;;13.87;62.84
65832;BME280;52593;42.648;23.332;2022-12-11T08:08:32;92632.72;;;13.93;62.21
65832;BME280;52593;42.648;23.332;2022-12-11T08:11:05;92644.34;;;13.98;62.10
65832;BME280;52593;42.648;23.332;2022-12-11T08:13:30;92630.91;;;14.25;60.92
65832;BME280;52593;42.648;23.332;2022-12-11T08:15:56;92614.34;;;14.34;61.21
65832;BME280;52593;42.648;23.332;2022-12-11T08:18:22;92632.09;;;14.07;62.78
65832;BME280;52593;42.648;23.332;2022-12-11T08:20:47;92630.81;;;13.93;63.64
65832;BME280;52593;42.648;23.332;2022-12-11T08:23:12;92631.28;;;13.85;64.64
65832;BME280;52593;42.648;23.332;2022-12-11T08:25:38;92630.31;;;14.18;61.73
65832;BME280;52593;42.648;23.332;2022-12-11T08:28:03;92630.22;;;14.35;61.01
65832;BME280;52593;42.648;23.332;2022-12-11T08:30:29;92640.19;;;14.13;64.44
65832;BME280;52593;42.648;23.332;2022-12-11T08:32:56;92641.19;;;14.06;66.04
65832;BME280;52593;42.648;23.332;2022-12-11T08:35:21;92627.31;;;14.15;62.51
65832;BME280;52593;42.648;23.332;2022-12-11T08:37:47;92631.75;;;14.04;65.07
65832;BME280;52593;42.648;23.332;2022-12-11T08:40:12;92622.00;;;13.98;65.17
65832;BME280;52593;42.648;23.332;2022-12-11T08:42:38;92624.97;;;13.74;66.37
65832;BME280;52593;42.648;23.332;2022-12-11T08:45:04;92622.59;;;13.55;68.87
65832;BME280;52593;42.648;23.332;2022-12-11T08:47:30;92612.41;;;13.58;71.01
65832;BME280;52593;42.648;23.332;2022-12-11T08:49:55;92627.31;;;13.48;69.85
65832;BME280;52593;42.648;23.332;2022-12-11T08:52:21;92620.31;;;13.91;65.26
65832;BME280;52593;42.648;23.332;2022-12-11T08:54:46;92613.41;;;13.51;69.74
65832;BME280;52593;42.648;23.332;2022-12-11T08:57:12;92617.06;;;13.45;69.50
65832;BME280;52593;42.648;23.332;2022-12-11T08:59:38;92617.81;;;13.41;69.96
65832;BME280;52593;42.648;23.332;2022-12-11T09:02:03;92628.88;;;13.44;70.32
65832;BME280;52593;42.648;23.332;2022-12-11T09:04:28;92631.22;;;13.58;70.24
65832;BME280;52593;42.648;23.332;2022-12-11T09:06:54;92629.91;;;13.60;71.49
65832;BME280;52593;42.648;23.332;2022-12-11T09:09:19;92624.72;;;13.76;69.41
65832;BME280;52593;42.648;23.332;2022-12-11T09:11:44;92632.41;;;13.67;71.18
65832;BME280;52593;42.648;23.332;2022-12-11T09:14:10;92601.28;;;13.71;69.64
65832;BME280;52593;42.648;23.332;2022-12-11T09:16:38;92610.41;;;13.92;66.98
65832;BME280;52593;42.648;23.332;2022-12-11T09:19:10;92624.56;;;14.09;66.12
65832;BME280;52593;42.648;23.332;2022-12-11T09:21:36;92614.91;;;14.41;63.33
65832;BME280;52593;42.648;23.332;2022-12-11T09:24:02;92600.38;;;14.64;59.36
65832;BME280;52593;42.648;23.332;2022-12-11T09:26:28;92616.09;;;14.77;60.19
65832;BME280;52593;42.648;23.332;2022-12-11T09:28:54;92610.75;;;14.55;61.04
65832;BME280;52593;42.648;23.332;2022-12-11T09:31:26;92611.03;;;14.86;69.04
65832;BME280;52593;42.648;23.332;2022-12-11T09:33:55;92597.69;;;15.02;71.41
65832;BME280;52593;42.648;23.332;2022-12-11T09:36:21;92601.59;;;15.21;60.26
65832;BME280;52593;42.648;23.332;2022-12-11T09:38:47;92608.38;;;14.91;61.02
65832;BME280;52593;42.648;23.332;2022-12-11T09:41:28;92605.13;;;14.84;59.62
65832;BME280;52593;42.648;23.332;2022-12-11T09:46:52;92600.88;;;14.93;60.97
65832;BME280;52593;42.648;23.332;2022-12-11T09:49:37;92599.59;;;15.06;61.17
65832;BME280;52593;42.648;23.332;2022-12-11T09:52:15;92599.94;;;15.15;61.92
65832;BME280;52593;42.648;23.332;2022-12-11T09:55:15;92582.72;;;14.78;64.06
65832;BME280;52593;42.648;23.332;2022-12-11T09:58:01;92584.56;;;14.73;63.08
65832;BME280;52593;42.648;23.332;2022-12-11T10:11:33;92592.16;;;15.19;62.69
65832;BME280;52593;42.648;23.332;2022-12-11T10:19:29;92585.56;;;14.39;63.44
65832;BME280;52593;42.648;23.332;2022-12-11T10:21:56;92580.44;;;14.38;64.05
65832;BME280;52593;42.648;23.332;2022-12-11T10:24:43;92587.47;;;14.66;61.29
65832;BME280;52593;42.648;23.332;2022-12-11T10:27:16;92580.69;;;14.96;62.63
65832;BME280;52593;42.648;23.332;2022-12-11T10:29:44;92595.00;;;15.02;60.29
65832;BME280;52593;42.648;23.332;2022-12-11T10:32:21;92585.16;;;14.80;64.23
65832;BME280;52593;42.648;23.332;2022-12-11T10:34:48;92574.91;;;14.50;65.87
65832;BME280;52593;42.648;23.332;2022-12-11T10:37:18;92586.56;;;14.28;68.11
65832;BME280;52593;42.648;23.332;2022-12-11T10:39:43;92586.44;;;14.18;69.32
65832;BME280;52593;42.648;23.332;2022-12-11T10:42:18;92585.66;;;14.77;66.69
65832;BME280;52593;42.648;23.332;2022-12-11T10:44:59;92580.09;;;14.56;69.19
65832;BME280;52593;42.648;23.332;2022-12-11T10:47:24;92550.91;;;14.43;68.36
65832;BME280;52593;42.648;23.332;2022-12-11T10:52:31;92554.78;;;15.32;56.69
65832;BME280;52593;42.648;23.332;2022-12-11T10:55:20;92544.69;;;15.65;58.02
65832;BME280;52593;42.648;23.332;2022-12-11T10:57:45;92554.38;;;15.61;56.31
65832;BME280;52593;42.648;23.332;2022-12-11T11:00:33;92557.78;;;15.99;56.55
65832;BME280;52593;42.648;23.332;2022-12-11T11:03:00;92557.38;;;15.75;57.84
65832;BME280;52593;42.648;23.332;2022-12-11T11:05:35;92561.81;;;15.39;62.24
65832;BME280;52593;42.648;23.332;2022-12-11T11:09:02;92548.53;;;15.22;63.98
65832;BME280;52593;42.648;23.332;2022-12-11T11:10:58;92557.13;;;15.19;64.07
65832;BME280;52593;42.648;23.332;2022-12-11T11:13:28;92558.47;;;15.16;63.10
65832;BME280;52593;42.648;23.332;2022-12-11T11:16:11;92547.44;;;15.18;59.45
65832;BME280;52593;42.648;23.332;2022-12-11T11:18:38;92544.09;;;15.00;60.27
65832;BME280;52593;42.648;23.332;2022-12-11T11:21:05;92553.50;;;14.97;60.97
65832;BME280;52593;42.648;23.332;2022-12-11T11:23:31;92553.97;;;14.89;63.87
65832;BME280;52593;42.648;23.332;2022-12-11T11:26:00;92551.72;;;14.76;64.63
65832;BME280;52593;42.648;23.332;2022-12-11T11:28:33;92553.84;;;14.69;66.01
65832;BME280;52593;42.648;23.332;2022-12-11T11:33:28;92549.28;;;14.74;65.31
65832;BME280;52593;42.648;23.332;2022-12-11T11:36:03;92550.44;;;14.84;66.41
65832;BME280;52593;42.648;23.332;2022-12-11T11:38:49;92560.09;;;14.47;67.18
65832;BME280;52593;42.648;23.332;2022-12-11T11:41:23;92559.78;;;14.43;70.20
65832;BME280;52593;42.648;23.332;2022-12-11T11:43:58;92557.44;;;14.52;67.97
65832;BME280;52593;42.648;23.332;2022-12-11T11:46:32;92553.88;;;14.41;72.95
65832;BME280;52593;42.648;23.332;2022-12-11T11:49:19;92548.25;;;14.16;74.68
65832;BME280;52593;42.648;23.332;2022-12-11T11:52:00;92539.31;;;14.10;74.53
65832;BME280;52593;42.648;23.332;2022-12-11T11:55:07;92524.91;;;13.94;73.30
65832;BME280;52593;42.648;23.332;2022-12-11T11:57:45;92525.31;;;13.81;70.10
65832;BME280;52593;42.648;23.332;2022-12-11T12:00:21;92531.81;;;13.85;73.84
65832;BME280;52593;42.648;23.332;2022-12-11T12:02:48;92527.72;;;13.77;71.35
65832;BME280;52593;42.648;23.332;2022-12-11T12:05:17;92528.63;;;13.66;70.54
65832;BME280;52593;42.648;23.332;2022-12-11T12:08:04;92531.75;;;13.80;69.24
65832;BME280;52593;42.648;23.332;2022-12-11T12:13:51;92527.31;;;13.24;77.95
65832;BME280;52593;42.648;23.332;2022-12-11T12:22:08;92539.03;;;12.96;80.91
65832;BME280;52593;42.648;23.332;2022-12-11T12:25:04;92529.69;;;13.20;69.44
65832;BME280;52593;42.648;23.332;2022-12-11T12:27:45;92519.66;;;12.94;73.21
65832;BME280;52593;42.648;23.332;2022-12-11T12:30:16;92512.13;;;12.52;78.21
65832;BME280;52593;42.648;23.332;2022-12-11T12:35:36;92522.41;;;12.60;73.67
65832;BME280;52593;42.648;23.332;2022-12-11T12:38:06;92536.56;;;12.38;77.43
65832;BME280;52593;42.648;23.332;2022-12-11T12:40:56;92553.84;;;11.56;82.18
65832;BME280;52593;42.648;23.332;2022-12-11T12:48:39;92584.44;;;8.60;97.83
65832;BME280;52593;42.648;23.332;2022-12-11T12:51:05;92583.66;;;8.02;100.00
65832;BME280;52593;42.648;23.332;2022-12-11T12:53:32;92591.16;;;7.48;100.00
65832;BME280;52593;42.648;23.332;2022-12-11T12:56:00;92604.25;;;7.49;100.00
65832;BME280;52593;42.648;23.332;2022-12-11T13:03:35;92641.69;;;6.83;100.00
65832;BME280;52593;42.648;23.332;2022-12-11T13:06:04;92631.75;;;6.31;100.00
65832;BME280;52593;42.648;23.332;2022-12-11T13:08:49;92646.84;;;6.04;100.00
65832;BME280;52593;42.648;23.332;2022-12-11T13:11:18;92660.13;;;6.51;100.00
65832;BME280;52593;42.648;23.332;2022-12-11T13:14:32;92677.50;;;6.20;100.00
65832;BME280;52593;42.648;23.332;2022-12-11T13:16:38;92666.03;;;5.99;100.00
65832;BME280;52593;42.648;23.332;2022-12-11T13:22:02;92691.69;;;5.24;100.00
65832;BME280;52593;42.648;23.332;2022-12-11T13:24:30;92684.00;;;4.94;100.00
65832;BME280;52593;42.648;23.332;2022-12-11T13:27:10;92699.16;;;4.72;100.00
65832;BME280;52593;42.648;23.332;2022-12-11T13:29:46;92722.25;;;4.85;100.00
65832;BME280;52593;42.648;23.332;2022-12-11T13:34:43;92733.63;;;4.78;100.00
65832;BME280;52593;42.648;23.332;2022-12-11T13:37:27;92731.34;;;4.47;100.00
65832;BME280;52593;42.648;23.332;2022-12-11T13:39:55;92732.47;;;4.38;100.00
65832;BME280;52593;42.648;23.332;2022-12-11T13:42:26;92732.97;;;4.48;100.00
65832;BME280;52593;42.648;23.332;2022-12-11T13:44:53;92750.53;;;4.49;100.00
65832;BME280;52593;42.648;23.332;2022-12-11T13:47:19;92742.78;;;4.47;100.00
65832;BME280;52593;42.648;23.332;2022-12-11T13:49:51;92751.66;;;4.40;100.00
65832;BME280;52593;42.648;23.332;2022-12-11T13:52:23;92750.81;;;4.39;100.00
65832;BME280;52593;42.648;23.332;2022-12-11T13:54:54;92772.47;;;4.43;100.00
65832;BME280;52593;42.648;23.332;2022-12-11T13:57:24;92766.25;;;4.29;100.00
65832;BME280;52593;42.648;23.332;2022-12-11T13:59:55;92772.34;;;4.29;100.00
65832;BME280;52593;42.648;23.332;2022-12-11T14:04:47;92783.53;;;4.10;100.00
65832;BME280;52593;42.648;23.332;2022-12-11T14:08:01;92798.94;;;4.00;100.00
65832;BME280;52593;42.648;23.332;2022-12-11T14:10:15;92801.28;;;3.95;100.00
65832;BME280;52593;42.648;23.332;2022-12-11T14:12:59;92802.28;;;3.93;100.00
65832;BME280;52593;42.648;23.332;2022-12-11T14:15:27;92804.13;;;3.93;100.00
65832;BME280;52593;42.648;23.332;2022-12-11T14:17:54;92813.28;;;3.75;100.00
65832;BME280;52593;42.648;23.332;2022-12-11T14:20:23;92814.84;;;3.70;100.00
65832;BME280;52593;42.648;23.332;2022-12-11T14:22:50;92820.13;;;3.70;100.00
65832;BME280;52593;42.648;23.332;2022-12-11T14:25:25;92842.03;;;3.64;100.00
65832;BME280;52593;42.648;23.332;2022-12-11T14:27:53;92835.00;;;3.56;100.00
65832;BME280;52593;42.648;23.332;2022-12-11T14:30:30;92855.91;;;3.51;100.00
65832;BME280;52593;42.648;23.332;2022-12-11T14:33:00;92847.69;;;3.46;100.00
65832;BME280;52593;42.648;23.332;2022-12-11T14:35:29;92854.44;;;3.48;100.00
65832;BME280;52593;42.648;23.332;2022-12-11T14:37:57;92855.78;;;3.44;100.00
65832;BME280;52593;42.648;23.332;2022-12-11T14:40:31;92858.97;;;3.39;100.00
65832;BME280;52593;42.648;23.332;2022-12-11T14:43:06;92856.13;;;3.26;100.00
65832;BME280;52593;42.648;23.332;2022-12-11T14:45:34;92865.34;;;3.30;100.00
65832;BME280;52593;42.648;23.332;2022-12-11T14:48:07;92864.91;;;3.27;100.00
65832;BME280;52593;42.648;23.332;2022-12-11T14:50:42;92855.25;;;3.19;100.00
65832;BME280;52593;42.648;23.332;2022-12-11T14:53:19;92867.06;;;3.08;100.00
65832;BME280;52593;42.648;23.332;2022-12-11T14:55:47;92876.63;;;3.09;100.00
65832;BME280;52593;42.648;23.332;2022-12-11T14:58:17;92880.56;;;3.13;100.00
65832;BME280;52593;42.648;23.332;2022-12-11T15:01:01;92888.50;;;3.13;100.00
65832;BME280;52593;42.648;23.332;2022-12-11T15:03:36;92880.66;;;3.20;100.00
65832;BME280;52593;42.648;23.332;2022-12-11T15:06:22;92875.28;;;3.13;100.00
65832;BME280;52593;42.648;23.332;2022-12-11T15:08:49;92891.13;;;3.13;100.00
65832;BME280;52593;42.648;23.332;2022-12-11T15:11:16;92899.16;;;3.05;100.00
65832;BME280;52593;42.648;23.332;2022-12-11T15:13:59;92902.38;;;2.92;100.00
65832;BME280;52593;42.648;23.332;2022-12-11T15:16:27;92901.56;;;2.92;100.00
65832;BME280;52593;42.648;23.332;2022-12-11T15:18:54;92904.09;;;2.85;100.00
65832;BME280;52593;42.648;23.332;2022-12-11T15:21:31;92895.81;;;2.88;100.00
65832;BME280;52593;42.648;23.332;2022-12-11T15:24:00;92899.81;;;2.84;100.00
65832;BME280;52593;42.648;23.332;2022-12-11T15:28:59;92904.38;;;2.67;100.00
65832;BME280;52593;42.648;23.332;2022-12-11T15:31:28;92917.00;;;2.57;100.00
65832;BME280;52593;42.648;23.332;2022-12-11T15:33:53;92930.19;;;2.57;100.00
65832;BME280;52593;42.648;23.332;2022-12-11T15:36:39;92932.03;;;2.56;100.00
65832;BME280;52593;42.648;23.332;2022-12-11T15:39:05;92930.72;;;2.52;100.00
65832;BME280;52593;42.648;23.332;2022-12-11T15:41:32;92931.53;;;2.53;100.00
65832;BME280;52593;42.648;23.332;2022-12-11T15:44:01;92936.19;;;2.50;100.00
65832;BME280;52593;42.648;23.332;2022-12-11T15:46:27;92934.84;;;2.55;100.00
65832;BME280;52593;42.648;23.332;2022-12-11T15:48:54;92930.59;;;2.45;100.00
65832;BME280;52593;42.648;23.332;2022-12-11T15:51:19;92931.16;;;2.32;100.00
65832;BME280;52593;42.648;23.332;2022-12-11T15:53:45;92923.28;;;2.24;100.00
65832;BME280;52593;42.648;23.332;2022-12-11T15:56:14;92932.19;;;2.23;100.00
65832;BME280;52593;42.648;23.332;2022-12-11T15:58:40;92933.03;;;2.24;100.00
65832;BME280;52593;42.648;23.332;2022-12-11T16:01:06;92942.41;;;2.26;100.00
65832;BME280;52593;42.648;23.332;2022-12-11T16:03:32;92944.50;;;2.39;100.00
65832;BME280;52593;42.648;23.332;2022-12-11T16:05:57;92961.31;;;2.38;100.00
65832;BME280;52593;42.648;23.332;2022-12-11T16:08:23;92968.25;;;2.39;100.00
65832;BME280;52593;42.648;23.332;2022-12-11T16:10:51;92958.97;;;2.43;100.00
65832;BME280;52593;42.648;23.332;2022-12-11T16:13:16;92963.03;;;2.54;100.00
65832;BME280;52593;42.648;23.332;2022-12-11T16:15:44;92977.91;;;2.55;100.00
65832;BME280;52593;42.648;23.332;2022-12-11T16:18:21;92979.84;;;2.61;100.00
65832;BME280;52593;42.648;23.332;2022-12-11T16:20:48;92984.50;;;2.51;100.00
65832;BME280;52593;42.648;23.332;2022-12-11T16:23:14;92998.72;;;2.50;100.00
65832;BME280;52593;42.648;23.332;2022-12-11T16:25:42;92996.72;;;2.52;100.00
65832;BME280;52593;42.648;23.332;2022-12-11T16:28:10;92993.47;;;2.42;100.00
65832;BME280;52593;42.648;23.332;2022-12-11T16:30:37;92992.38;;;2.36;100.00
65832;BME280;52593;42.648;23.332;2022-12-11T16:33:03;92995.19;;;2.35;100.00
65832;BME280;52593;42.648;23.332;2022-12-11T16:35:29;92992.38;;;2.28;100.00
65832;BME280;52593;42.648;23.332;2022-12-11T16:37:55;92988.13;;;2.27;100.00
65832;BME280;52593;42.648;23.332;2022-12-11T16:40:20;93003.09;;;2.35;100.00
65832;BME280;52593;42.648;23.332;2022-12-11T16:42:46;93005.91;;;2.25;100.00
65832;BME280;52593;42.648;23.332;2022-12-11T16:45:16;93001.31;;;2.27;100.00
65832;BME280;52593;42.648;23.332;2022-12-11T16:47:42;92996.72;;;2.21;100.00
65832;BME280;52593;42.648;23.332;2022-12-11T16:50:10;93015.09;;;2.37;100.00
65832;BME280;52593;42.648;23.332;2022-12-11T16:52:35;93004.38;;;2.39;100.00
65832;BME280;52593;42.648;23.332;2022-12-11T16:55:00;93014.13;;;2.38;100.00
65832;BME280;52593;42.648;23.332;2022-12-11T16:57:26;93019.63;;;2.60;99.24
65832;BME280;52593;42.648;23.332;2022-12-11T16:59:52;93017.38;;;2.48;99.87
65832;BME280;52593;42.648;23.332;2022-12-11T17:02:19;93021.69;;;2.41;100.00
65832;BME280;52593;42.648;23.332;2022-12-11T17:04:44;93033.75;;;2.36;100.00
65832;BME280;52593;42.648;23.332;2022-12-11T17:07:10;93035.28;;;2.30;100.00
65832;BME280;52593;42.648;23.332;2022-12-11T17:09:36;93029.66;;;2.33;100.00
65832;BME280;52593;42.648;23.332;2022-12-11T17:12:02;93031.16;;;2.27;100.00
65832;BME280;52593;42.648;23.332;2022-12-11T17:14:27;93029.50;;;2.26;100.00
65832;BME280;52593;42.648;23.332;2022-12-11T17:16:54;93035.75;;;2.34;100.00
65832;BME280;52593;42.648;23.332;2022-12-11T17:19:19;93037.41;;;2.26;100.00
65832;BME280;52593;42.648;23.332;2022-12-11T17:21:45;93040.22;;;2.33;100.00
65832;BME280;52593;42.648;23.332;2022-12-11T17:24:14;93034.25;;;2.39;100.00
65832;BME280;52593;42.648;23.332;2022-12-11T17:26:40;93048.81;;;2.19;100.00
65832;BME280;52593;42.648;23.332;2022-12-11T17:29:05;93054.50;;;1.99;100.00
65832;BME280;52593;42.648;23.332;2022-12-11T17:31:31;93054.50;;;1.99;100.00
65832;BME280;52593;42.648;23.332;2022-12-11T17:33:57;93050.53;;;1.95;100.00
65832;BME280;52593;42.648;23.332;2022-12-11T17:36:25;93048.25;;;1.84;100.00
65832;BME280;52593;42.648;23.332;2022-12-11T17:38:51;93046.94;;;1.80;100.00
65832;BME280;52593;42.648;23.332;2022-12-11T17:41:17;93050.09;;;1.75;100.00
65832;BME280;52593;42.648;23.332;2022-12-11T17:43:44;93042.50;;;1.64;100.00
65832;BME280;52593;42.648;23.332;2022-12-11T17:46:10;93037.09;;;1.57;100.00
65832;BME280;52593;42.648;23.332;2022-12-11T17:48:35;93053.06;;;1.55;100.00
65832;BME280;52593;42.648;23.332;2022-12-11T17:51:03;93061.47;;;1.51;100.00
65832;BME280;52593;42.648;23.332;2022-12-11T17:53:29;93052.59;;;1.52;100.00
65832;BME280;52593;42.648;23.332;2022-12-11T17:55:59;93062.63;;;1.48;100.00
65832;BME280;52593;42.648;23.332;2022-12-11T17:58:24;93070.03;;;1.53;100.00
65832;BME280;52593;42.648;23.332;2022-12-11T18:00:51;93062.78;;;1.47;100.00
65832;BME280;52593;42.648;23.332;2022-12-11T18:03:18;93059.16;;;1.56;100.00
65832;BME280;52593;42.648;23.332;2022-12-11T18:05:47;93064.09;;;1.59;100.00
65832;BME280;52593;42.648;23.332;2022-12-11T18:08:21;93077.47;;;1.49;100.00
65832;BME280;52593;42.648;23.332;2022-12-11T18:10:47;93082.41;;;1.52;100.00
65832;BME280;52593;42.648;23.332;2022-12-11T18:13:13;93077.97;;;1.61;100.00
65832;BME280;52593;42.648;23.332;2022-12-11T18:15:39;93086.19;;;1.58;100.00
65832;BME280;52593;42.648;23.332;2022-12-11T18:18:05;93084.38;;;1.58;100.00
65832;BME280;52593;42.648;23.332;2022-12-11T18:20:32;93073.66;;;1.60;100.00
65832;BME280;52593;42.648;23.332;2022-12-11T18:22:58;93085.69;;;1.54;100.00
65832;BME280;52593;42.648;23.332;2022-12-11T18:25:24;93095.44;;;1.46;100.00
65832;BME280;52593;42.648;23.332;2022-12-11T18:27:49;93083.56;;;1.33;100.00
65832;BME280;52593;42.648;23.332;2022-12-11T18:30:15;93082.22;;;1.29;100.00
65832;BME280;52593;42.648;23.332;2022-12-11T18:32:42;93083.22;;;1.36;100.00
65832;BME280;52593;42.648;23.332;2022-12-11T18:35:08;93082.75;;;1.41;100.00
65832;BME280;52593;42.648;23.332;2022-12-11T18:37:33;93074.16;;;1.47;100.00
65832;BME280;52593;42.648;23.332;2022-12-11T18:39:59;93081.41;;;1.62;100.00
65832;BME280;52593;42.648;23.332;2022-12-11T18:42:24;93080.91;;;1.58;100.00
65832;BME280;52593;42.648;23.332;2022-12-11T18:44:50;93091.75;;;1.30;100.00
65832;BME280;52593;42.648;23.332;2022-12-11T18:47:15;93103.00;;;1.49;100.00
65832;BME280;52593;42.648;23.332;2022-12-11T18:49:42;93106.94;;;1.45;100.00
65832;BME280;52593;42.648;23.332;2022-12-11T18:52:07;93107.44;;;1.32;100.00
65832;BME280;52593;42.648;23.332;2022-12-11T18:54:33;93107.09;;;1.27;100.00
65832;BME280;52593;42.648;23.332;2022-12-11T18:56:58;93113.16;;;1.27;100.00
65832;BME280;52593;42.648;23.332;2022-12-11T18:59:24;93109.75;;;1.35;98.85
65832;BME280;52593;42.648;23.332;2022-12-11T19:01:49;93102.81;;;1.34;99.60
65832;BME280;52593;42.648;23.332;2022-12-11T19:04:15;93107.56;;;1.30;97.70
65832;BME280;52593;42.648;23.332;2022-12-11T19:06:40;93104.28;;;1.28;97.42
65832;BME280;52593;42.648;23.332;2022-12-11T19:09:06;93111.38;;;1.28;97.61
65832;BME280;52593;42.648;23.332;2022-12-11T19:11:34;93101.31;;;1.23;97.68
65832;BME280;52593;42.648;23.332;2022-12-11T19:13:59;93101.00;;;1.26;97.13
65832;BME280;52593;42.648;23.332;2022-12-11T19:16:36;93117.28;;;1.30;97.00
65832;BME280;52593;42.648;23.332;2022-12-11T19:19:10;93120.63;;;1.32;97.05
65832;BME280;52593;42.648;23.332;2022-12-11T19:21:37;93120.09;;;1.28;97.22
65832;BME280;52593;42.648;23.332;2022-12-11T19:24:07;93129.66;;;1.37;97.58
65832;BME280;52593;42.648;23.332;2022-12-11T19:26:33;93129.84;;;1.44;98.93
65832;BME280;52593;42.648;23.332;2022-12-11T19:28:59;93138.09;;;1.41;98.79
65832;BME280;52593;42.648;23.332;2022-12-11T19:31:27;93145.84;;;1.51;97.68
65832;BME280;52593;42.648;23.332;2022-12-11T19:33:53;93147.31;;;1.53;98.05
65832;BME280;52593;42.648;23.332;2022-12-11T19:36:21;93154.88;;;1.48;97.12
65832;BME280;52593;42.648;23.332;2022-12-11T19:38:48;93168.91;;;1.49;96.87
65832;BME280;52593;42.648;23.332;2022-12-11T19:41:17;93165.78;;;1.53;97.80
65832;BME280;52593;42.648;23.332;2022-12-11T19:43:43;93170.53;;;1.41;97.13
65832;BME280;52593;42.648;23.332;2022-12-11T19:46:09;93173.34;;;1.48;96.99
65832;BME280;52593;42.648;23.332;2022-12-11T19:48:35;93173.66;;;1.45;97.47
65832;BME280;52593;42.648;23.332;2022-12-11T19:51:11;93175.47;;;1.45;97.60
65832;BME280;52593;42.648;23.332;2022-12-11T19:53:37;93171.66;;;1.31;97.85
65832;BME280;52593;42.648;23.332;2022-12-11T19:56:03;93170.84;;;1.38;98.53
65832;BME280;52593;42.648;23.332;2022-12-11T19:58:29;93169.88;;;1.39;98.07
65832;BME280;52593;42.648;23.332;2022-12-11T20:00:54;93161.81;;;1.41;97.29
65832;BME280;52593;42.648;23.332;2022-12-11T20:03:20;93154.72;;;1.50;99.04
65832;BME280;52593;42.648;23.332;2022-12-11T20:05:46;93153.88;;;1.24;99.63
65832;BME280;52593;42.648;23.332;2022-12-11T20:08:11;93160.91;;;1.24;100.00
65832;BME280;52593;42.648;23.332;2022-12-11T20:10:37;93148.13;;;1.62;100.00
65832;BME280;52593;42.648;23.332;2022-12-11T20:13:02;93144.13;;;1.17;100.00
65832;BME280;52593;42.648;23.332;2022-12-11T20:15:29;93147.38;;;1.02;100.00
65832;BME280;52593;42.648;23.332;2022-12-11T20:17:56;93151.66;;;1.12;100.00
65832;BME280;52593;42.648;23.332;2022-12-11T20:20:23;93155.00;;;1.14;98.71
65832;BME280;52593;42.648;23.332;2022-12-11T20:22:56;93157.63;;;1.30;98.79
65832;BME280;52593;42.648;23.332;2022-12-11T20:25:23;93160.63;;;1.35;98.86
65832;BME280;52593;42.648;23.332;2022-12-11T20:27:49;93167.53;;;1.28;98.32
65832;BME280;52593;42.648;23.332;2022-12-11T20:30:15;93166.19;;;1.24;98.32
65832;BME280;52593;42.648;23.332;2022-12-11T20:32:40;93158.44;;;1.22;96.97
65832;BME280;52593;42.648;23.332;2022-12-11T20:35:24;93154.38;;;1.36;97.76
65832;BME280;52593;42.648;23.332;2022-12-11T20:37:51;93152.69;;;1.27;nan
65832;BME280;52593;42.648;23.332;2022-12-11T20:40:17;93143.53;;;1.64;98.45
65832;BME280;52593;42.648;23.332;2022-12-11T20:42:42;93159.00;;;1.59;97.19
65832;BME280;52593;42.648;23.332;2022-12-11T20:45:08;93159.34;;;1.56;96.36
65832;BME280;52593;42.648;23.332;2022-12-11T20:47:34;93169.41;;;1.69;97.78
65832;BME280;52593;42.648;23.332;2022-12-11T20:49:59;93169.75;;;1.66;97.40
65832;BME280;52593;42.648;23.332;2022-12-11T20:52:25;93172.06;;;1.69;97.96
65832;BME280;52593;42.648;23.332;2022-12-11T20:54:50;93172.34;;;1.57;98.54
65832;BME280;52593;42.648;23.332;2022-12-11T20:57:16;93180.13;;;1.67;98.42
65832;BME280;52593;42.648;23.332;2022-12-11T20:59:42;93182.09;;;1.90;97.42
65832;BME280;52593;42.648;23.332;2022-12-11T21:02:10;93171.69;;;1.64;97.38